Forestville, Canada
Current Conditions -  °F | °C
As of 9:00 AM on Thursday 23 Oct 2014 (Local Time) from CYYY Reporting Station
Few Clouds Few Clouds  
Wind Chill: 32°   Ceiling: Unl
Heat Index: 39°   Visibility: 30mi
Dew Point: 36°   Wind: 12mph
Humidity: 87%   Direction: 70°ENE
Pressure: 30.32"   Gusts: NA
Location:  48.73°N, 69.07°W
Report Text: CYYY 231300Z 07010KT 30SM FEW030 FEW240 04/02 A3032 RMK SC1CI1 SLP271
Loading
Personal Weather Stations






























Interactive Weather Map
Tropical Storm Tracking
New forecast layout! Learn more

10-Day Weather Forecast

Advertisements
Track Severe Weather on mobile